Météo ( Metar ) des aéroports voisins de france et espagne.

 

LFBZ - Biarritz, Pays basque
Nouvelle Aquitaine - France
Distance direct 32 km Sud
Mise à jour: 26/05/2024 04:00
couvert
couvert
 Wind from O
Vent: O 7 km/h
Température: 16°C
Point de rosée: 14°C
Humidité: 88%
Baromètre: 1018 hPa
Clouds: couvert
Visibility: 10 km
Cloud details: couvert 488 m
2024/05/26 02:00 LFBZ 260200Z AUTO 26004KT 220V290 9999 OVC016/// 16/14 Q1018 TEMPO BKN010
LFBY - Dax Seyresse,
Nouvelle Aquitaine - France
Distance direct 29 km Est
Mise à jour: 26/05/2024 04:00

 Wind from O
Vent: O 7 km/h
Température: 17°C
Point de rosée: 14°C
Humidité: 83%
Baromètre: 1017 hPa
Visibility: 10 km
2024/05/26 02:00 LFBY 260200Z AUTO 28004KT 240V310 9999 // ////// 17/14 Q1017
 
LFBD - Bordeaux Mérignac,
Nouvelle Aquitaine - France
Distance direct 156 km Nord
Mise à jour: 26/05/2024 04:00
couvert
couvert
 Wind from O
Vent: O 17 km/h
Température: 16°C
Point de rosée: 14°C
Humidité: 88%
Baromètre: 1016 hPa
Clouds: couvert
Visibility: 10 km
Cloud details: nuageux 335 m
couvert 2256 m
2024/05/26 02:00 LFBD 260200Z AUTO 27009KT 9999 BKN011 OVC074 16/14 Q1016 TEMPO 3000 -RA BKN005 OVC010
LFBP - Pau Pyrennées atlantiques,
Nouvelle Aquitaine - France
Distance direct 120 km SSE
Mise à jour: 26/05/2024 04:00
nuageux
nuageux
 Wind from O
Vent: O 9 km/h
Température: 15°C
Point de rosée: 13°C
Humidité: 88%
Baromètre: 1018 hPa
Clouds: nuageux
Visibility: 10 km
Cloud details: nuageux 427 m
nuageux 579 m
nuageux 2865 m
2024/05/26 02:00 LFBP 260200Z AUTO 26005KT 9999 BKN014/// BKN019/// BKN094/// 15/13 Q1018 TEMPO OVC007
 
LFBA - Agen La Garenne,
Lot et Garonne - France
Distance direct 210 km ENE
Mise à jour: 26/05/2024 04:00
clair
clair
 Wind from O
Vent: O 13 km/h
Température: 16°C
Point de rosée: 13°C
Humidité: 83%
Baromètre: 1016 hPa
Résumé: clair
Visibility: greater than 10 km
2024/05/26 02:00 LFBA 260200Z AUTO 27007KT CAVOK 16/13 Q1016
LFBT - Tarbes Lourdes,
Hautes Pyrennées - France
Distance direct 150 km ESE
Mise à jour: 26/05/2024 04:00
partiellement nuageux
partiellement nuageux
 Wind from OSO
Vent: OSO 9 km/h
Température: 13°C
Point de rosée: 11°C
Humidité: 88%
Baromètre: 1018 hPa
Clouds: partiellement nuageux
Visibility: 10 km
Cloud details: partiellement nuageux 274 m
2024/05/26 02:00 LFBT 260200Z AUTO 25005KT 220V280 9999 SCT009 13/11 Q1018 TEMPO BKN005
 
LFBO - Toulouse Blagnac,
Haute Garonne,- France
Distance direct 250 km EST
Mise à jour: 26/05/2024 04:00
clair
clair
 Wind from O
Vent: O 11 km/h
Température: 16°C
Point de rosée: 13°C
Humidité: 83%
Baromètre: 1017 hPa
Résumé: clair
Visibility: greater than 10 km
2024/05/26 02:00 LFBO 260200Z AUTO 26006KT 230V300 CAVOK 16/13 Q1017 BECMG BKN012
LFBE - Bergerac, Dordogne,
Nouvelle Aquitaine - France
Distance direct 240 km EST
Mise à jour: 26/05/2024 04:00
clair
clair
 Wind from calm
Vent: calme
Température: 13°C
Point de rosée: 12°C
Humidité: 94%
Baromètre: 1016 hPa
Résumé: clair
Visibility: greater than 10 km
2024/05/26 02:00 LFBE 260200Z AUTO 00000KT CAVOK 13/12 Q1016 BECMG BKN010
 
LESO - Saint Sebastien,
Pays basque/ESPANA
Distance direct 94 km ESE
Mise à jour: 26/05/2024 04:00
couvert
couvert
 Wind from varies
Vent: varies 4 km/h
Température: 17°C
Point de rosée: 14°C
Humidité: 83%
Baromètre: 1018 hPa
Clouds: couvert
Visibility: 10 km
Cloud details: couvert 640 m
2024/05/26 02:00 LESO 260200Z AUTO VRB02KT 9999 OVC021 17/14 Q1018
LEBB - Bilbao,,
Vizcaya/ESPANA
Distance direct 180 km ESE
Mise à jour: 26/05/2024 04:00
couvert
couvert
 Wind from varies
Vent: varies 2 km/h
Température: 15°C
Point de rosée: 12°C
Humidité: 82%
Baromètre: 1018 hPa
Clouds: couvert
Visibility: 10 km
Cloud details: partiellement nuageux 853 m
nuageux 1128 m
couvert 1372 m
2024/05/26 02:00 LEBB 260200Z AUTO VRB01KT 9999 SCT028 BKN037 OVC045 15/12 Q1018
 
LEVT - Vitoria-Gasteiz,
Pays basque/ESPANA
Distance direct 190 km OSO
Mise à jour: 26/05/2024 04:00
partiellement nuageux
partiellement nuageux
 Wind from calm
Vent: calme
Température: 7°C
Point de rosée: 5°C
Humidité: 87%
Baromètre: 1018 hPa
Clouds: partiellement nuageux
Visibility: 9 km
2024/05/26 02:00 LEVT 260200Z 00000KT 9000 NSC 07/05 Q1018
LEPP - Pamplona,
Pays basque/ESPANA
Distance direct 142 km SUD
Mise à jour: 26/05/2024 04:00
clair
clair
 Wind from ONO
Vent: ONO 6 km/h
Température: 13°C
Point de rosée: 8°C
Humidité: 72%
Baromètre: 1018 hPa
Résumé: clair
Visibility: greater than 10 km
2024/05/26 02:00 LEPP 260200Z AUTO 29003KT CAVOK 13/08 Q1018
 
LELO - Logrono,
Pays basque/ESPANA
Distance direct 122 km SSO
Mise à jour: 26/05/2024 04:00
clair
clair
 Wind from O
Vent: O 7 km/h
Température: 12°C
Point de rosée: 6°C
Humidité: 67%
Baromètre: 1017 hPa
Clouds: clair
Visibility: 9 km
2024/05/26 02:00 LELO 260200Z AUTO 27004KT 240V300 9000 NCD 12/06 Q1017
LEZG - Saragosse,
Aragon,/ESPANA
Distance direct 302 km SUD
Mise à jour: 26/05/2024 04:00
clair
clair
 Wind from NNE
Vent: NNE 7 km/h
Température: 17°C
Point de rosée: 13°C
Humidité: 77%
Baromètre: 1016 hPa
Résumé: clair
Visibility: greater than 10 km
2024/05/26 02:00 LEZG 260200Z 03004KT CAVOK 17/13 Q1016 NOSIG